HTI weather

Hamilton Island Airport
Hamilton Island, Queensland, Australia

Public forecast

Using degrees Celsius for public forecast. Weather courtesy of forecast.io.

METAR (pilot weather report)

Retrieved 2017/08/20 13:30 UTC (0 seconds ago):

YBHM 201330Z AUTO 13020KT 9999 // NCD 18/07 Q1019

TAF (pilot weather forecast)

Forecast is more than 12 hours old.

Retrieved 2017/06/25 18:00 UTC (2 months ago):

TAF YBHM 251717Z 2518/2606 16014KT 9999 FEW008 FM260000 16015KT 9999 FEW025